sensor_id;sensor_type;location;lat;lon;timestamp;P1;durP1;ratioP1;P2;durP2;ratioP2
51616;SDS011;37697;52.588;13.394;2022-09-24T00:04:03;11.18;;;7.75;;
51616;SDS011;37697;52.588;13.394;2022-09-24T00:09:07;10.18;;;7.65;;
51616;SDS011;37697;52.588;13.394;2022-09-24T00:14:10;9.70;;;7.67;;
51616;SDS011;37697;52.588;13.394;2022-09-24T00:19:11;9.13;;;6.92;;
51616;SDS011;37697;52.588;13.394;2022-09-24T00:24:14;9.08;;;7.10;;
51616;SDS011;37697;52.588;13.394;2022-09-24T00:29:35;10.78;;;7.60;;
51616;SDS011;37697;52.588;13.394;2022-09-24T00:34:35;9.90;;;7.65;;
51616;SDS011;37697;52.588;13.394;2022-09-24T00:39:36;8.70;;;6.90;;
51616;SDS011;37697;52.588;13.394;2022-09-24T00:55:16;7.72;;;6.65;;
51616;SDS011;37697;52.588;13.394;2022-09-24T01:00:19;8.33;;;6.78;;
51616;SDS011;37697;52.588;13.394;2022-09-24T01:05:21;8.00;;;6.12;;
51616;SDS011;37697;52.588;13.394;2022-09-24T01:10:24;8.03;;;6.67;;
51616;SDS011;37697;52.588;13.394;2022-09-24T01:15:55;8.30;;;6.42;;
51616;SDS011;37697;52.588;13.394;2022-09-24T01:21:14;7.47;;;5.97;;
51616;SDS011;37697;52.588;13.394;2022-09-24T01:26:32;8.43;;;5.90;;
51616;SDS011;37697;52.588;13.394;2022-09-24T01:31:43;7.90;;;6.00;;
51616;SDS011;37697;52.588;13.394;2022-09-24T01:36:47;6.77;;;5.77;;
51616;SDS011;37697;52.588;13.394;2022-09-24T01:41:51;6.92;;;5.17;;
51616;SDS011;37697;52.588;13.394;2022-09-24T01:46:54;6.30;;;5.40;;
51616;SDS011;37697;52.588;13.394;2022-09-24T01:51:55;6.10;;;5.20;;
51616;SDS011;37697;52.588;13.394;2022-09-24T01:57:02;6.62;;;5.40;;
51616;SDS011;37697;52.588;13.394;2022-09-24T02:07:51;7.50;;;5.00;;
51616;SDS011;37697;52.588;13.394;2022-09-24T02:13:08;5.35;;;4.75;;
51616;SDS011;37697;52.588;13.394;2022-09-24T02:18:14;6.83;;;5.50;;
51616;SDS011;37697;52.588;13.394;2022-09-24T02:23:19;5.90;;;4.78;;
51616;SDS011;37697;52.588;13.394;2022-09-24T02:28:20;6.80;;;5.17;;
51616;SDS011;37697;52.588;13.394;2022-09-24T02:33:22;6.45;;;5.03;;
51616;SDS011;37697;52.588;13.394;2022-09-24T02:38:43;5.37;;;4.70;;
51616;SDS011;37697;52.588;13.394;2022-09-24T02:43:45;8.43;;;5.80;;
51616;SDS011;37697;52.588;13.394;2022-09-24T02:48:46;7.00;;;5.27;;
51616;SDS011;37697;52.588;13.394;2022-09-24T02:53:47;8.47;;;4.97;;
51616;SDS011;37697;52.588;13.394;2022-09-24T02:58:48;6.77;;;4.97;;
51616;SDS011;37697;52.588;13.394;2022-09-24T03:03:49;6.10;;;5.00;;
51616;SDS011;37697;52.588;13.394;2022-09-24T03:08:50;6.37;;;4.78;;
51616;SDS011;37697;52.588;13.394;2022-09-24T03:13:52;9.05;;;5.30;;
51616;SDS011;37697;52.588;13.394;2022-09-24T03:18:53;7.57;;;5.03;;
51616;SDS011;37697;52.588;13.394;2022-09-24T03:23:54;7.90;;;5.13;;
51616;SDS011;37697;52.588;13.394;2022-09-24T03:28:55;6.30;;;5.15;;
51616;SDS011;37697;52.588;13.394;2022-09-24T03:33:56;5.67;;;5.08;;
51616;SDS011;37697;52.588;13.394;2022-09-24T03:38:57;6.40;;;4.62;;
51616;SDS011;37697;52.588;13.394;2022-09-24T03:44:00;6.95;;;5.08;;
51616;SDS011;37697;52.588;13.394;2022-09-24T03:49:00;5.65;;;4.70;;
51616;SDS011;37697;52.588;13.394;2022-09-24T03:54:01;7.23;;;5.87;;
51616;SDS011;37697;52.588;13.394;2022-09-24T03:59:02;6.77;;;5.70;;
51616;SDS011;37697;52.588;13.394;2022-09-24T04:04:03;8.77;;;5.87;;
51616;SDS011;37697;52.588;13.394;2022-09-24T04:09:04;7.62;;;5.58;;
51616;SDS011;37697;52.588;13.394;2022-09-24T04:14:05;7.23;;;5.37;;
51616;SDS011;37697;52.588;13.394;2022-09-24T04:19:06;7.15;;;5.70;;
51616;SDS011;37697;52.588;13.394;2022-09-24T04:24:07;6.67;;;5.17;;
51616;SDS011;37697;52.588;13.394;2022-09-24T04:29:08;6.37;;;4.87;;
51616;SDS011;37697;52.588;13.394;2022-09-24T04:34:09;8.07;;;6.00;;
51616;SDS011;37697;52.588;13.394;2022-09-24T04:44:10;5.95;;;4.95;;
51616;SDS011;37697;52.588;13.394;2022-09-24T04:54:13;7.33;;;4.83;;
51616;SDS011;37697;52.588;13.394;2022-09-24T04:59:14;6.42;;;5.00;;
51616;SDS011;37697;52.588;13.394;2022-09-24T05:04:15;8.17;;;5.27;;
51616;SDS011;37697;52.588;13.394;2022-09-24T05:09:16;6.55;;;5.25;;
51616;SDS011;37697;52.588;13.394;2022-09-24T05:14:17;6.57;;;5.60;;
51616;SDS011;37697;52.588;13.394;2022-09-24T05:19:18;6.97;;;5.43;;
51616;SDS011;37697;52.588;13.394;2022-09-24T05:24:19;7.30;;;5.75;;
51616;SDS011;37697;52.588;13.394;2022-09-24T05:29:19;10.63;;;6.75;;
51616;SDS011;37697;52.588;13.394;2022-09-24T05:34:20;6.47;;;5.55;;
51616;SDS011;37697;52.588;13.394;2022-09-24T05:39:21;7.23;;;5.53;;
51616;SDS011;37697;52.588;13.394;2022-09-24T05:44:22;8.57;;;6.50;;
51616;SDS011;37697;52.588;13.394;2022-09-24T05:54:24;7.03;;;5.93;;
51616;SDS011;37697;52.588;13.394;2022-09-24T05:59:25;9.03;;;6.83;;
51616;SDS011;37697;52.588;13.394;2022-09-24T06:04:26;8.80;;;7.03;;
51616;SDS011;37697;52.588;13.394;2022-09-24T06:09:27;8.33;;;6.83;;
51616;SDS011;37697;52.588;13.394;2022-09-24T06:14:28;8.40;;;6.70;;
51616;SDS011;37697;52.588;13.394;2022-09-24T06:19:28;10.17;;;6.80;;
51616;SDS011;37697;52.588;13.394;2022-09-24T06:24:29;9.40;;;5.70;;
51616;SDS011;37697;52.588;13.394;2022-09-24T06:29:30;9.43;;;6.63;;
51616;SDS011;37697;52.588;13.394;2022-09-24T06:34:31;11.93;;;7.20;;
51616;SDS011;37697;52.588;13.394;2022-09-24T06:39:32;6.97;;;5.97;;
51616;SDS011;37697;52.588;13.394;2022-09-24T06:44:33;9.57;;;6.97;;
51616;SDS011;37697;52.588;13.394;2022-09-24T06:49:35;8.83;;;6.22;;
51616;SDS011;37697;52.588;13.394;2022-09-24T06:54:36;7.60;;;6.80;;
51616;SDS011;37697;52.588;13.394;2022-09-24T06:59:37;8.10;;;6.60;;
51616;SDS011;37697;52.588;13.394;2022-09-24T07:04:38;7.70;;;6.23;;
51616;SDS011;37697;52.588;13.394;2022-09-24T07:09:39;8.23;;;6.60;;
51616;SDS011;37697;52.588;13.394;2022-09-24T07:14:41;8.43;;;6.40;;
51616;SDS011;37697;52.588;13.394;2022-09-24T07:19:42;8.97;;;6.27;;
51616;SDS011;37697;52.588;13.394;2022-09-24T07:24:42;8.40;;;6.10;;
51616;SDS011;37697;52.588;13.394;2022-09-24T07:29:43;6.70;;;6.00;;
51616;SDS011;37697;52.588;13.394;2022-09-24T07:34:44;7.40;;;6.00;;
51616;SDS011;37697;52.588;13.394;2022-09-24T07:39:45;8.90;;;6.62;;
51616;SDS011;37697;52.588;13.394;2022-09-24T07:44:46;6.37;;;5.40;;
51616;SDS011;37697;52.588;13.394;2022-09-24T07:49:48;7.12;;;5.78;;
51616;SDS011;37697;52.588;13.394;2022-09-24T07:54:48;9.90;;;6.00;;
51616;SDS011;37697;52.588;13.394;2022-09-24T07:59:51;8.25;;;6.37;;
51616;SDS011;37697;52.588;13.394;2022-09-24T08:04:53;9.15;;;6.60;;
51616;SDS011;37697;52.588;13.394;2022-09-24T08:09:54;10.07;;;5.77;;
51616;SDS011;37697;52.588;13.394;2022-09-24T08:14:55;8.88;;;6.05;;
51616;SDS011;37697;52.588;13.394;2022-09-24T08:19:56;9.25;;;6.17;;
51616;SDS011;37697;52.588;13.394;2022-09-24T08:24:58;7.65;;;5.40;;
51616;SDS011;37697;52.588;13.394;2022-09-24T08:35:00;7.97;;;5.37;;
51616;SDS011;37697;52.588;13.394;2022-09-24T08:40:01;8.50;;;5.97;;
51616;SDS011;37697;52.588;13.394;2022-09-24T08:45:02;8.75;;;6.15;;
51616;SDS011;37697;52.588;13.394;2022-09-24T08:55:33;7.22;;;5.80;;
51616;SDS011;37697;52.588;13.394;2022-09-24T09:00:50;8.60;;;6.80;;
51616;SDS011;37697;52.588;13.394;2022-09-24T09:06:00;8.15;;;5.67;;
51616;SDS011;37697;52.588;13.394;2022-09-24T09:11:03;7.45;;;5.55;;
51616;SDS011;37697;52.588;13.394;2022-09-24T09:16:17;8.98;;;6.25;;
51616;SDS011;37697;52.588;13.394;2022-09-24T09:21:33;7.92;;;5.95;;
51616;SDS011;37697;52.588;13.394;2022-09-24T09:26:42;8.00;;;6.37;;
51616;SDS011;37697;52.588;13.394;2022-09-24T09:32:11;7.28;;;6.03;;
51616;SDS011;37697;52.588;13.394;2022-09-24T09:42:46;6.95;;;5.87;;
51616;SDS011;37697;52.588;13.394;2022-09-24T09:47:48;7.60;;;6.15;;
51616;SDS011;37697;52.588;13.394;2022-09-24T09:52:56;7.12;;;5.53;;
51616;SDS011;37697;52.588;13.394;2022-09-24T10:03:23;8.23;;;5.03;;
51616;SDS011;37697;52.588;13.394;2022-09-24T10:08:33;7.30;;;5.05;;
51616;SDS011;37697;52.588;13.394;2022-09-24T10:13:35;9.18;;;5.87;;
51616;SDS011;37697;52.588;13.394;2022-09-24T10:23:48;5.95;;;4.92;;
51616;SDS011;37697;52.588;13.394;2022-09-24T10:28:50;7.37;;;4.97;;
51616;SDS011;37697;52.588;13.394;2022-09-24T10:34:25;6.03;;;4.62;;
51616;SDS011;37697;52.588;13.394;2022-09-24T10:39:28;7.00;;;4.25;;
51616;SDS011;37697;52.588;13.394;2022-09-24T10:44:36;5.85;;;4.50;;
51616;SDS011;37697;52.588;13.394;2022-09-24T10:54:57;6.08;;;4.30;;
51616;SDS011;37697;52.588;13.394;2022-09-24T11:00:31;7.08;;;4.92;;
51616;SDS011;37697;52.588;13.394;2022-09-24T11:05:52;5.65;;;3.98;;
51616;SDS011;37697;52.588;13.394;2022-09-24T11:11:05;5.30;;;4.10;;
51616;SDS011;37697;52.588;13.394;2022-09-24T11:16:34;6.65;;;4.30;;
51616;SDS011;37697;52.588;13.394;2022-09-24T11:22:07;7.08;;;4.37;;
51616;SDS011;37697;52.588;13.394;2022-09-24T11:38:12;7.53;;;3.90;;
51616;SDS011;37697;52.588;13.394;2022-09-24T11:43:38;5.25;;;3.58;;
51616;SDS011;37697;52.588;13.394;2022-09-24T11:48:51;5.40;;;3.70;;
51616;SDS011;37697;52.588;13.394;2022-09-24T11:54:01;5.10;;;3.87;;
51616;SDS011;37697;52.588;13.394;2022-09-24T11:59:12;5.50;;;3.87;;
51616;SDS011;37697;52.588;13.394;2022-09-24T12:04:39;5.62;;;3.70;;
51616;SDS011;37697;52.588;13.394;2022-09-24T12:09:56;4.72;;;3.58;;
51616;SDS011;37697;52.588;13.394;2022-09-24T12:15:20;8.53;;;3.90;;
51616;SDS011;37697;52.588;13.394;2022-09-24T12:20:29;6.20;;;3.75;;
51616;SDS011;37697;52.588;13.394;2022-09-24T12:25:28;4.67;;;3.40;;
51616;SDS011;37697;52.588;13.394;2022-09-24T12:30:40;5.83;;;3.50;;
51616;SDS011;37697;52.588;13.394;2022-09-24T12:46:43;4.83;;;3.10;;
51616;SDS011;37697;52.588;13.394;2022-09-24T12:51:51;4.47;;;3.62;;
51616;SDS011;37697;52.588;13.394;2022-09-24T12:57:18;5.08;;;3.25;;
51616;SDS011;37697;52.588;13.394;2022-09-24T13:02:24;4.75;;;3.30;;
51616;SDS011;37697;52.588;13.394;2022-09-24T13:12:39;5.83;;;3.90;;
51616;SDS011;37697;52.588;13.394;2022-09-24T13:17:40;5.60;;;4.03;;
51616;SDS011;37697;52.588;13.394;2022-09-24T13:22:41;4.90;;;3.47;;
51616;SDS011;37697;52.588;13.394;2022-09-24T13:27:42;3.87;;;3.33;;
51616;SDS011;37697;52.588;13.394;2022-09-24T13:32:48;5.25;;;3.17;;
51616;SDS011;37697;52.588;13.394;2022-09-24T13:38:20;4.05;;;3.22;;
51616;SDS011;37697;52.588;13.394;2022-09-24T13:43:35;6.75;;;3.80;;
51616;SDS011;37697;52.588;13.394;2022-09-24T13:49:00;5.10;;;3.33;;
51616;SDS011;37697;52.588;13.394;2022-09-24T13:54:07;5.72;;;3.25;;
51616;SDS011;37697;52.588;13.394;2022-09-24T13:59:28;6.03;;;3.40;;
51616;SDS011;37697;52.588;13.394;2022-09-24T14:04:30;4.50;;;3.30;;
51616;SDS011;37697;52.588;13.394;2022-09-24T14:09:33;6.80;;;3.60;;
51616;SDS011;37697;52.588;13.394;2022-09-24T14:14:36;4.33;;;3.33;;
51616;SDS011;37697;52.588;13.394;2022-09-24T14:19:46;4.22;;;3.08;;
51616;SDS011;37697;52.588;13.394;2022-09-24T14:24:57;5.23;;;3.17;;
51616;SDS011;37697;52.588;13.394;2022-09-24T14:30:16;6.03;;;3.20;;
51616;SDS011;37697;52.588;13.394;2022-09-24T14:35:27;5.10;;;3.30;;
51616;SDS011;37697;52.588;13.394;2022-09-24T14:40:37;5.85;;;3.45;;
51616;SDS011;37697;52.588;13.394;2022-09-24T14:45:42;5.80;;;3.70;;
51616;SDS011;37697;52.588;13.394;2022-09-24T14:50:46;4.22;;;2.87;;
51616;SDS011;37697;52.588;13.394;2022-09-24T14:55:47;8.67;;;3.83;;
51616;SDS011;37697;52.588;13.394;2022-09-24T15:00:50;6.10;;;4.25;;
51616;SDS011;37697;52.588;13.394;2022-09-24T15:06:05;6.05;;;3.72;;
51616;SDS011;37697;52.588;13.394;2022-09-24T15:11:25;5.00;;;3.57;;
51616;SDS011;37697;52.588;13.394;2022-09-24T15:16:32;4.20;;;3.12;;
51616;SDS011;37697;52.588;13.394;2022-09-24T15:21:35;4.85;;;3.12;;
51616;SDS011;37697;52.588;13.394;2022-09-24T15:26:38;5.37;;;2.90;;
51616;SDS011;37697;52.588;13.394;2022-09-24T15:31:42;6.55;;;3.08;;
51616;SDS011;37697;52.588;13.394;2022-09-24T15:36:43;6.58;;;4.40;;
51616;SDS011;37697;52.588;13.394;2022-09-24T15:41:45;7.12;;;4.65;;
51616;SDS011;37697;52.588;13.394;2022-09-24T15:46:46;7.78;;;4.15;;
51616;SDS011;37697;52.588;13.394;2022-09-24T15:51:55;6.28;;;4.83;;
51616;SDS011;37697;52.588;13.394;2022-09-24T15:57:10;6.10;;;4.55;;
51616;SDS011;37697;52.588;13.394;2022-09-24T16:02:16;4.87;;;4.15;;
51616;SDS011;37697;52.588;13.394;2022-09-24T16:07:28;8.63;;;4.97;;
51616;SDS011;37697;52.588;13.394;2022-09-24T16:17:30;8.10;;;5.53;;
51616;SDS011;37697;52.588;13.394;2022-09-24T16:22:31;9.88;;;7.53;;
51616;SDS011;37697;52.588;13.394;2022-09-24T16:27:31;9.53;;;7.53;;
51616;SDS011;37697;52.588;13.394;2022-09-24T16:32:34;7.78;;;6.42;;
51616;SDS011;37697;52.588;13.394;2022-09-24T16:42:36;6.90;;;5.57;;
51616;SDS011;37697;52.588;13.394;2022-09-24T16:47:37;7.05;;;5.67;;
51616;SDS011;37697;52.588;13.394;2022-09-24T16:52:38;7.30;;;6.30;;
51616;SDS011;37697;52.588;13.394;2022-09-24T16:57:40;9.75;;;6.78;;
51616;SDS011;37697;52.588;13.394;2022-09-24T17:02:41;10.58;;;7.70;;
51616;SDS011;37697;52.588;13.394;2022-09-24T17:07:42;8.40;;;7.33;;
51616;SDS011;37697;52.588;13.394;2022-09-24T17:12:47;8.47;;;7.57;;
51616;SDS011;37697;52.588;13.394;2022-09-24T17:17:49;9.90;;;8.25;;
51616;SDS011;37697;52.588;13.394;2022-09-24T17:27:51;9.18;;;8.28;;
51616;SDS011;37697;52.588;13.394;2022-09-24T17:32:52;9.83;;;8.47;;
51616;SDS011;37697;52.588;13.394;2022-09-24T17:37:52;21.00;;;17.43;;
51616;SDS011;37697;52.588;13.394;2022-09-24T17:47:54;35.75;;;30.27;;
51616;SDS011;37697;52.588;13.394;2022-09-24T17:52:55;28.03;;;23.90;;
51616;SDS011;37697;52.588;13.394;2022-09-24T17:57:57;27.52;;;22.98;;
51616;SDS011;37697;52.588;13.394;2022-09-24T18:07:58;14.83;;;12.53;;
51616;SDS011;37697;52.588;13.394;2022-09-24T18:12:59;15.13;;;11.10;;
51616;SDS011;37697;52.588;13.394;2022-09-24T18:18:00;11.05;;;9.35;;
51616;SDS011;37697;52.588;13.394;2022-09-24T18:23:01;11.67;;;9.73;;
51616;SDS011;37697;52.588;13.394;2022-09-24T18:28:02;10.90;;;9.50;;
51616;SDS011;37697;52.588;13.394;2022-09-24T18:33:03;10.13;;;8.75;;
51616;SDS011;37697;52.588;13.394;2022-09-24T18:38:04;10.00;;;8.87;;
51616;SDS011;37697;52.588;13.394;2022-09-24T18:43:04;9.20;;;8.28;;
51616;SDS011;37697;52.588;13.394;2022-09-24T18:53:06;9.58;;;7.80;;
51616;SDS011;37697;52.588;13.394;2022-09-24T18:58:07;10.93;;;9.37;;
51616;SDS011;37697;52.588;13.394;2022-09-24T19:03:10;11.95;;;10.60;;
51616;SDS011;37697;52.588;13.394;2022-09-24T19:08:11;10.72;;;9.45;;
51616;SDS011;37697;52.588;13.394;2022-09-24T19:13:12;10.43;;;8.43;;
51616;SDS011;37697;52.588;13.394;2022-09-24T19:18:14;8.80;;;7.72;;
51616;SDS011;37697;52.588;13.394;2022-09-24T19:23:17;8.53;;;7.62;;
51616;SDS011;37697;52.588;13.394;2022-09-24T19:28:18;8.00;;;7.10;;
51616;SDS011;37697;52.588;13.394;2022-09-24T19:33:19;10.50;;;9.40;;
51616;SDS011;37697;52.588;13.394;2022-09-24T19:38:22;12.68;;;10.68;;
51616;SDS011;37697;52.588;13.394;2022-09-24T19:43:27;12.50;;;10.68;;
51616;SDS011;37697;52.588;13.394;2022-09-24T19:48:30;11.90;;;10.60;;
51616;SDS011;37697;52.588;13.394;2022-09-24T19:53:34;12.85;;;11.55;;
51616;SDS011;37697;52.588;13.394;2022-09-24T19:58:35;12.00;;;10.65;;
51616;SDS011;37697;52.588;13.394;2022-09-24T20:03:37;12.50;;;10.18;;
51616;SDS011;37697;52.588;13.394;2022-09-24T20:08:39;9.88;;;8.73;;
51616;SDS011;37697;52.588;13.394;2022-09-24T20:13:41;12.40;;;10.48;;
51616;SDS011;37697;52.588;13.394;2022-09-24T20:18:44;10.48;;;9.05;;
51616;SDS011;37697;52.588;13.394;2022-09-24T20:23:51;10.30;;;8.63;;
51616;SDS011;37697;52.588;13.394;2022-09-24T20:28:54;8.63;;;7.22;;
51616;SDS011;37697;52.588;13.394;2022-09-24T20:33:56;7.00;;;6.25;;
51616;SDS011;37697;52.588;13.394;2022-09-24T20:38:56;6.90;;;6.12;;
51616;SDS011;37697;52.588;13.394;2022-09-24T20:43:58;6.78;;;6.03;;
51616;SDS011;37697;52.588;13.394;2022-09-24T20:48:59;6.43;;;5.83;;
51616;SDS011;37697;52.588;13.394;2022-09-24T20:54:01;7.55;;;6.55;;
51616;SDS011;37697;52.588;13.394;2022-09-24T20:59:01;6.85;;;6.15;;
51616;SDS011;37697;52.588;13.394;2022-09-24T21:04:02;6.83;;;6.00;;
51616;SDS011;37697;52.588;13.394;2022-09-24T21:09:03;7.03;;;6.23;;
51616;SDS011;37697;52.588;13.394;2022-09-24T21:14:04;7.72;;;6.37;;
51616;SDS011;37697;52.588;13.394;2022-09-24T21:19:09;7.25;;;6.28;;
51616;SDS011;37697;52.588;13.394;2022-09-24T21:24:13;7.40;;;6.65;;
51616;SDS011;37697;52.588;13.394;2022-09-24T21:29:16;7.72;;;6.95;;
51616;SDS011;37697;52.588;13.394;2022-09-24T21:34:21;11.12;;;8.65;;
51616;SDS011;37697;52.588;13.394;2022-09-24T21:39:22;11.47;;;9.03;;
51616;SDS011;37697;52.588;13.394;2022-09-24T21:44:25;10.45;;;9.35;;
51616;SDS011;37697;52.588;13.394;2022-09-24T21:49:28;10.78;;;9.68;;
51616;SDS011;37697;52.588;13.394;2022-09-24T21:54:31;11.50;;;10.32;;
51616;SDS011;37697;52.588;13.394;2022-09-24T21:59:35;11.20;;;10.00;;
51616;SDS011;37697;52.588;13.394;2022-09-24T22:04:54;10.15;;;9.03;;
51616;SDS011;37697;52.588;13.394;2022-09-24T22:09:55;14.03;;;9.30;;
51616;SDS011;37697;52.588;13.394;2022-09-24T22:14:56;10.78;;;9.63;;
51616;SDS011;37697;52.588;13.394;2022-09-24T22:19:57;10.57;;;9.53;;
51616;SDS011;37697;52.588;13.394;2022-09-24T22:24:58;11.30;;;10.20;;
51616;SDS011;37697;52.588;13.394;2022-09-24T22:29:59;10.50;;;9.53;;
51616;SDS011;37697;52.588;13.394;2022-09-24T22:34:59;11.27;;;10.17;;
51616;SDS011;37697;52.588;13.394;2022-09-24T22:40:19;11.18;;;10.08;;
51616;SDS011;37697;52.588;13.394;2022-09-24T22:45:20;11.67;;;10.57;;
51616;SDS011;37697;52.588;13.394;2022-09-24T22:50:20;12.27;;;9.97;;
51616;SDS011;37697;52.588;13.394;2022-09-24T22:55:21;11.12;;;9.70;;
51616;SDS011;37697;52.588;13.394;2022-09-24T23:00:22;12.67;;;9.97;;
51616;SDS011;37697;52.588;13.394;2022-09-24T23:05:23;10.60;;;9.58;;
51616;SDS011;37697;52.588;13.394;2022-09-24T23:10:24;10.48;;;9.20;;
51616;SDS011;37697;52.588;13.394;2022-09-24T23:15:27;10.05;;;9.18;;
51616;SDS011;37697;52.588;13.394;2022-09-24T23:20:28;10.10;;;8.85;;
51616;SDS011;37697;52.588;13.394;2022-09-24T23:25:29;10.38;;;9.38;;
51616;SDS011;37697;52.588;13.394;2022-09-24T23:30:29;10.40;;;9.43;;
51616;SDS011;37697;52.588;13.394;2022-09-24T23:35:30;9.83;;;8.83;;
51616;SDS011;37697;52.588;13.394;2022-09-24T23:40:31;9.87;;;8.90;;
51616;SDS011;37697;52.588;13.394;2022-09-24T23:45:32;9.60;;;8.67;;
51616;SDS011;37697;52.588;13.394;2022-09-24T23:50:33;10.03;;;9.07;;
51616;SDS011;37697;52.588;13.394;2022-09-24T23:55:34;9.95;;;8.95;;
